createdAt,value
2018-05-25T00:01:49.056Z,101532.42
2018-05-25T00:04:15.686Z,101536.84
2018-05-25T00:06:42.466Z,101537.32
2018-05-25T00:09:10.020Z,101536.07
2018-05-25T00:11:36.689Z,101542.74
2018-05-25T00:14:03.320Z,101541.63
2018-05-25T00:16:30.692Z,101542.80
2018-05-25T00:18:57.388Z,101543.86
2018-05-25T00:21:24.034Z,101540.03
2018-05-25T00:23:50.711Z,101534.56
2018-05-25T00:26:17.469Z,101530.82
2018-05-25T00:28:44.147Z,101526.68
2018-05-25T00:31:10.806Z,101532.80
2018-05-25T00:33:38.430Z,101531.77
2018-05-25T00:36:05.107Z,101532.90
2018-05-25T00:38:32.525Z,101542.52
2018-05-25T00:40:59.182Z,101534.16
2018-05-25T00:43:26.021Z,101542.09
2018-05-25T00:45:52.692Z,101538.84
2018-05-25T00:48:20.241Z,101541.44
2018-05-25T00:50:47.683Z,101539.16
2018-05-25T00:53:14.351Z,101536.78
2018-05-25T00:55:41.107Z,101538.28
2018-05-25T00:58:07.739Z,101533.53
2018-05-25T01:00:34.694Z,101532.34
2018-05-25T01:03:01.469Z,101533.75
2018-05-25T01:05:28.366Z,101527.80
2018-05-25T01:07:55.036Z,101529.56
2018-05-25T01:10:21.766Z,101533.20
2018-05-25T01:12:48.421Z,101530.27
2018-05-25T01:15:15.120Z,101528.13
2018-05-25T01:17:42.593Z,101527.38
2018-05-25T01:20:09.274Z,101522.63
2018-05-25T01:22:35.937Z,101526.94
2018-05-25T01:25:03.411Z,101519.53
2018-05-25T01:27:30.775Z,101522.08
2018-05-25T01:29:57.547Z,101523.59
2018-05-25T01:32:24.189Z,101518.74
2018-05-25T01:34:50.805Z,101516.39
2018-05-25T01:37:17.516Z,101512.71
2018-05-25T01:39:45.058Z,101511.84
2018-05-25T01:42:11.725Z,101504.97
2018-05-25T01:44:38.416Z,101506.17
2018-05-25T01:47:05.053Z,101511.76
2018-05-25T01:49:31.762Z,101506.11
2018-05-25T01:51:58.412Z,101510.33
2018-05-25T01:54:25.061Z,101509.05
2018-05-25T01:56:51.892Z,101504.05
2018-05-25T01:59:18.661Z,101505.74
2018-05-25T02:01:45.328Z,101505.23
2018-05-25T02:04:12.746Z,101501.44
2018-05-25T02:06:39.495Z,101502.84
2018-05-25T02:09:06.217Z,101505.80
2018-05-25T02:11:32.856Z,101497.38
2018-05-25T02:13:59.582Z,101494.03
2018-05-25T02:16:26.233Z,101498.09
2018-05-25T02:18:53.073Z,101495.90
2018-05-25T02:21:19.707Z,101493.02
2018-05-25T02:23:46.359Z,101492.23
2018-05-25T02:26:13.012Z,101498.83
2018-05-25T02:28:39.888Z,101496.99
2018-05-25T02:31:07.409Z,101496.15
2018-05-25T02:33:34.082Z,101495.02
2018-05-25T02:36:00.748Z,101491.13
2018-05-25T02:38:27.396Z,101491.84
2018-05-25T02:40:54.275Z,101491.05
2018-05-25T02:43:20.918Z,101487.55
2018-05-25T02:45:47.737Z,101491.92
2018-05-25T02:48:14.478Z,101491.22
2018-05-25T02:50:41.159Z,101491.92
2018-05-25T02:53:07.830Z,101490.90
2018-05-25T02:55:34.502Z,101492.41
2018-05-25T02:58:01.145Z,101488.83
2018-05-25T03:00:27.794Z,101494.88
2018-05-25T03:02:54.442Z,101500.98
2018-05-25T03:05:21.061Z,101495.42
2018-05-25T03:07:47.909Z,101495.20
2018-05-25T03:10:14.574Z,101500.66
2018-05-25T03:12:41.218Z,101506.21
2018-05-25T03:15:08.569Z,101506.94
2018-05-25T03:17:35.252Z,101504.70
2018-05-25T03:20:01.934Z,101508.03
2018-05-25T03:22:28.782Z,101510.10
2018-05-25T03:24:55.488Z,101510.64
2018-05-25T03:27:22.118Z,101511.52
2018-05-25T03:29:48.976Z,101513.52
2018-05-25T03:32:15.614Z,101506.21
2018-05-25T03:34:42.241Z,101509.62
2018-05-25T03:37:08.938Z,101506.12
2018-05-25T03:39:36.325Z,101513.59
2018-05-25T03:42:02.982Z,101506.28
2018-05-25T03:44:29.592Z,101505.48
2018-05-25T03:46:56.276Z,101509.28
2018-05-25T03:49:22.903Z,101520.55
2018-05-25T03:51:49.671Z,101521.13
2018-05-25T03:54:16.317Z,101524.05
2018-05-25T03:56:42.963Z,101523.33
2018-05-25T03:59:28.806Z,101524.47
2018-05-25T04:01:58.239Z,101526.34
2018-05-25T04:04:26.450Z,101526.13
2018-05-25T04:06:53.113Z,101522.17
2018-05-25T04:09:19.857Z,101525.81
2018-05-25T04:11:46.598Z,101530.80
2018-05-25T04:14:13.280Z,101530.65
2018-05-25T04:16:40.214Z,101528.67
2018-05-25T04:19:07.239Z,101527.63
2018-05-25T04:21:33.989Z,101527.31
2018-05-25T04:24:00.800Z,101527.58
2018-05-25T04:26:27.438Z,101538.75
2018-05-25T04:28:54.201Z,101539.72
2018-05-25T04:31:20.853Z,101533.92
2018-05-25T04:33:47.475Z,101537.02
2018-05-25T04:36:14.250Z,101534.78
2018-05-25T04:38:40.873Z,101533.21
2018-05-25T04:41:07.648Z,101541.06
2018-05-25T04:43:35.086Z,101542.09
2018-05-25T04:46:01.854Z,101546.45
2018-05-25T04:48:29.417Z,101543.53
2018-05-25T04:50:56.795Z,101546.23
2018-05-25T04:53:23.433Z,101550.12
2018-05-25T04:55:50.309Z,101545.72
2018-05-25T04:58:16.942Z,101545.43
2018-05-25T05:00:43.751Z,101543.32
2018-05-25T05:03:10.358Z,101552.85
2018-05-25T05:05:37.107Z,101547.67
2018-05-25T05:08:04.468Z,101548.41
2018-05-25T05:10:31.952Z,101547.34
2018-05-25T05:12:58.810Z,101550.33
2018-05-25T05:15:25.770Z,101557.69
2018-05-25T05:17:52.397Z,101553.52
2018-05-25T05:20:19.012Z,101557.30
2018-05-25T05:22:46.572Z,101556.92
2018-05-25T05:25:13.334Z,101559.77
2018-05-25T05:27:40.280Z,101557.75
2018-05-25T05:30:06.923Z,101555.45
2018-05-25T05:32:33.913Z,101557.89
2018-05-25T05:35:01.277Z,101555.62
2018-05-25T05:37:28.723Z,101560.89
2018-05-25T05:39:55.351Z,101555.68
2018-05-25T05:42:22.201Z,101552.09
2018-05-25T05:44:49.566Z,101555.13
2018-05-25T05:47:17.109Z,101548.42
2018-05-25T05:49:43.749Z,101548.47
2018-05-25T05:52:10.542Z,101549.94
2018-05-25T05:54:37.214Z,101548.50
2018-05-25T05:57:03.972Z,101550.75
2018-05-25T05:59:30.595Z,101552.26
2018-05-25T06:01:57.373Z,101542.00
2018-05-25T06:04:24.901Z,101549.45
2018-05-25T06:06:51.544Z,101544.10
2018-05-25T06:09:18.186Z,101550.64
2018-05-25T06:11:45.009Z,101549.66
2018-05-25T06:14:11.729Z,101558.90
2018-05-25T06:16:38.454Z,101558.59
2018-05-25T06:19:05.729Z,101561.89
2018-05-25T06:21:32.388Z,101561.16
2018-05-25T06:23:59.103Z,101562.67
2018-05-25T06:26:25.871Z,101556.80
2018-05-25T06:28:52.512Z,101564.29
2018-05-25T06:31:19.189Z,101570.10
2018-05-25T06:33:45.996Z,101570.73
2018-05-25T06:36:12.661Z,101565.63
2018-05-25T06:38:40.213Z,101572.09
2018-05-25T06:41:07.874Z,101570.55
2018-05-25T06:43:35.265Z,101563.72
2018-05-25T06:46:01.918Z,101563.14
2018-05-25T06:48:28.731Z,101565.23
2018-05-25T06:50:56.160Z,101566.55
2018-05-25T06:53:23.532Z,101572.09
2018-05-25T06:55:51.144Z,101583.33
2018-05-25T06:58:17.822Z,101583.38
2018-05-25T07:00:44.459Z,101581.63
2018-05-25T07:03:11.241Z,101582.13
2018-05-25T07:05:37.874Z,101585.02
2018-05-25T07:08:04.557Z,101583.41
2018-05-25T07:10:31.190Z,101583.49
2018-05-25T07:12:57.821Z,101584.59
2018-05-25T07:15:24.490Z,101580.22
2018-05-25T07:17:51.152Z,101579.47
2018-05-25T07:20:18.728Z,101581.04
2018-05-25T07:22:45.479Z,101579.75
2018-05-25T07:25:13.477Z,101577.19
2018-05-25T07:27:40.216Z,101585.89
2018-05-25T07:30:09.000Z,101579.69
2018-05-25T07:32:35.873Z,101584.38
2018-05-25T07:35:02.677Z,101589.06
2018-05-25T07:37:29.336Z,101584.17
2018-05-25T07:39:56.051Z,101587.53
2018-05-25T07:42:22.863Z,101590.56
2018-05-25T07:44:50.477Z,101589.55
2018-05-25T07:47:17.284Z,101588.14
2018-05-25T07:49:44.908Z,101593.82
2018-05-25T07:52:11.637Z,101593.66
2018-05-25T07:54:38.468Z,101593.84
2018-05-25T07:57:05.152Z,101599.34
2018-05-25T07:59:32.646Z,101602.87
2018-05-25T08:01:59.311Z,101597.50
2018-05-25T08:04:25.995Z,101604.45
2018-05-25T08:06:52.650Z,101605.66
2018-05-25T08:09:20.009Z,101606.91
2018-05-25T08:11:46.828Z,101606.27
2018-05-25T08:14:14.269Z,101611.84
2018-05-25T08:16:42.374Z,101607.42
2018-05-25T08:19:10.786Z,101603.11
2018-05-25T08:21:37.718Z,101606.91
2018-05-25T08:24:05.922Z,101604.08
2018-05-25T08:26:32.572Z,101607.59
2018-05-25T08:28:59.238Z,101606.17
2018-05-25T08:31:25.969Z,101596.66
2018-05-25T08:33:52.642Z,101604.67
2018-05-25T08:36:19.290Z,101606.73
2018-05-25T08:38:45.978Z,101603.36
2018-05-25T08:41:13.418Z,101605.86
2018-05-25T08:43:40.063Z,101604.77
2018-05-25T08:46:06.712Z,101615.14
2018-05-25T08:48:34.153Z,101608.88
2018-05-25T08:51:00.812Z,101600.38
2018-05-25T08:53:28.226Z,101610.95
2018-05-25T08:55:54.878Z,101609.31
2018-05-25T08:58:21.515Z,101604.64
2018-05-25T09:00:48.189Z,101603.44
2018-05-25T09:03:15.617Z,101608.24
2018-05-25T09:05:42.425Z,101597.91
2018-05-25T09:08:09.192Z,101604.74
2018-05-25T09:10:35.850Z,101608.95
2018-05-25T09:13:03.465Z,101606.02
2018-05-25T09:15:31.041Z,101606.23
2018-05-25T09:17:57.810Z,101605.83
2018-05-25T09:20:24.474Z,101603.84
2018-05-25T09:22:51.858Z,101605.75
2018-05-25T09:25:19.425Z,101602.00
2018-05-25T09:27:48.370Z,101602.59
2018-05-25T09:30:20.504Z,101603.04
2018-05-25T09:32:52.610Z,101601.01
2018-05-25T09:35:24.465Z,101604.57
2018-05-25T09:37:55.811Z,101604.05
2018-05-25T09:40:25.695Z,101605.16
2018-05-25T09:42:54.435Z,101599.19
2018-05-25T09:45:24.738Z,101602.88
2018-05-25T09:47:54.810Z,101601.62
2018-05-25T09:50:23.427Z,101604.52
2018-05-25T09:52:51.801Z,101607.73
2018-05-25T09:55:18.692Z,101603.97
2018-05-25T09:57:57.115Z,101600.51
2018-05-25T10:00:24.635Z,101601.81
2018-05-25T10:02:51.325Z,101605.31
2018-05-25T10:05:18.721Z,101604.18
2018-05-25T10:07:45.414Z,101599.59
2018-05-25T10:10:12.850Z,101599.89
2018-05-25T10:12:39.590Z,101595.13
2018-05-25T10:15:06.245Z,101594.86
2018-05-25T10:17:33.637Z,101604.38
2018-05-25T10:20:00.305Z,101601.70
2018-05-25T10:22:26.984Z,101597.35
2018-05-25T10:24:54.397Z,101595.05
2018-05-25T10:27:21.115Z,101586.40
2018-05-25T10:29:48.020Z,101584.00
2018-05-25T10:32:15.449Z,101572.70
2018-05-25T10:34:42.113Z,101579.41
2018-05-25T10:37:09.497Z,101582.29
2018-05-25T10:39:36.220Z,101575.11
2018-05-25T10:42:03.667Z,101575.47
2018-05-25T10:44:31.438Z,101575.05
2018-05-25T10:46:58.848Z,101569.09
2018-05-25T10:49:25.581Z,101565.33
2018-05-25T10:51:55.423Z,101576.39
2018-05-25T10:54:22.338Z,101578.47
2018-05-25T10:56:49.006Z,101576.58
2018-05-25T10:59:15.817Z,101563.12
2018-05-25T11:01:42.606Z,101565.02
2018-05-25T11:04:09.240Z,101568.59
2018-05-25T11:06:36.085Z,101571.45
2018-05-25T11:09:07.547Z,101573.99
2018-05-25T11:11:38.587Z,101569.21
2018-05-25T11:14:07.578Z,101568.83
2018-05-25T11:16:38.540Z,101569.05
2018-05-25T11:19:07.383Z,101572.28
2018-05-25T11:21:39.433Z,101575.19
2018-05-25T11:24:10.097Z,101567.48
2018-05-25T11:26:42.275Z,101561.45
2018-05-25T11:29:11.496Z,101564.09
2018-05-25T11:31:42.297Z,101557.26
2018-05-25T11:34:13.053Z,101565.41
2018-05-25T11:36:40.093Z,101555.77
2018-05-25T11:39:06.753Z,101560.82
2018-05-25T11:41:34.282Z,101559.23
2018-05-25T11:44:00.960Z,101554.88
2018-05-25T11:46:28.323Z,101557.42
2018-05-25T11:48:55.009Z,101558.83
2018-05-25T11:51:21.706Z,101552.40
2018-05-25T11:53:48.363Z,101542.61
2018-05-25T11:56:15.108Z,101534.11
2018-05-25T11:58:41.776Z,101538.94
2018-05-25T12:01:08.637Z,101535.64
2018-05-25T12:03:35.298Z,101544.34
2018-05-25T12:06:02.669Z,101540.54
2018-05-25T12:08:29.832Z,101537.22
2018-05-25T12:10:56.680Z,101539.77
2018-05-25T12:13:23.392Z,101536.16
2018-05-25T12:15:50.899Z,101537.30
2018-05-25T12:18:17.591Z,101539.31
2018-05-25T12:20:44.319Z,101539.56
2018-05-25T12:23:11.861Z,101536.82
2018-05-25T12:25:38.777Z,101537.39
2018-05-25T12:28:05.510Z,101535.03
2018-05-25T12:30:33.591Z,101541.24
2018-05-25T12:33:00.225Z,101543.93
2018-05-25T12:35:26.998Z,101542.08
2018-05-25T12:37:53.662Z,101543.14
2018-05-25T12:40:21.038Z,101554.52
2018-05-25T12:42:47.719Z,101553.60
2018-05-25T12:45:14.905Z,101550.28
2018-05-25T12:47:42.309Z,101547.19
2018-05-25T12:50:09.002Z,101551.95
2018-05-25T12:52:36.422Z,101540.59
2018-05-25T12:55:03.956Z,101537.53
2018-05-25T12:57:30.787Z,101538.10
2018-05-25T12:59:57.497Z,101533.63
2018-05-25T13:02:25.018Z,101533.92
2018-05-25T13:04:52.448Z,101535.16
2018-05-25T13:07:19.149Z,101542.46
2018-05-25T13:09:46.560Z,101543.61
2018-05-25T13:12:13.258Z,101541.45
2018-05-25T13:14:41.424Z,101534.98
2018-05-25T13:17:08.816Z,101540.69
2018-05-25T13:19:35.607Z,101535.37
2018-05-25T13:22:02.277Z,101543.84
2018-05-25T13:24:28.913Z,101540.11
2018-05-25T13:26:55.660Z,101540.62
2018-05-25T13:29:22.285Z,101545.37
2018-05-25T13:31:49.699Z,101544.27
2018-05-25T13:34:16.471Z,101540.77
2018-05-25T13:36:43.937Z,101543.45
2018-05-25T13:39:11.309Z,101546.23
2018-05-25T13:41:38.133Z,101535.80
2018-05-25T13:44:05.508Z,101545.30
2018-05-25T13:46:32.168Z,101542.70
2018-05-25T13:48:58.821Z,101540.86
2018-05-25T13:51:25.457Z,101542.17
2018-05-25T13:53:52.136Z,101539.08
2018-05-25T13:56:19.523Z,101538.13
2018-05-25T13:58:46.378Z,101540.25
2018-05-25T14:01:13.021Z,101541.17
2018-05-25T14:03:39.764Z,101537.28
2018-05-25T14:06:06.617Z,101533.92
2018-05-25T14:08:33.341Z,101528.86
2018-05-25T14:11:00.056Z,101527.52
2018-05-25T14:13:27.518Z,101527.12
2018-05-25T14:15:54.235Z,101524.36
2018-05-25T14:18:20.866Z,101524.59
2018-05-25T14:20:47.634Z,101527.23
2018-05-25T14:23:15.148Z,101525.28
2018-05-25T14:25:41.844Z,101514.97
2018-05-25T14:28:08.497Z,101521.98
2018-05-25T14:30:35.200Z,101525.67
2018-05-25T14:33:02.756Z,101532.77
2018-05-25T14:35:30.292Z,101531.88
2018-05-25T14:37:56.939Z,101536.89
2018-05-25T14:40:23.644Z,101538.91
2018-05-25T14:42:50.391Z,101541.13
2018-05-25T14:45:17.232Z,101541.36
2018-05-25T14:47:43.908Z,101537.73
2018-05-25T14:50:10.560Z,101540.08
2018-05-25T14:52:38.157Z,101539.88
2018-05-25T14:55:04.873Z,101545.23
2018-05-25T14:57:32.306Z,101541.65
2018-05-25T14:59:58.917Z,101535.07
2018-05-25T15:02:25.723Z,101538.44
2018-05-25T15:04:52.681Z,101538.41
2018-05-25T15:07:19.502Z,101543.02
2018-05-25T15:09:46.247Z,101545.58
2018-05-25T15:12:12.903Z,101544.39
2018-05-25T15:14:39.559Z,101547.12
2018-05-25T15:17:06.432Z,101544.98
2018-05-25T15:19:33.116Z,101540.85
2018-05-25T15:21:59.915Z,101539.55
2018-05-25T15:24:26.634Z,101544.31
2018-05-25T15:26:53.349Z,101534.41
2018-05-25T15:29:20.024Z,101537.70
2018-05-25T15:31:48.173Z,101539.11
2018-05-25T15:34:14.846Z,101537.56
2018-05-25T15:36:41.516Z,101535.58
2018-05-25T15:39:08.911Z,101531.38
2018-05-25T15:41:35.737Z,101534.36
2018-05-25T15:44:02.358Z,101528.06
2018-05-25T21:07:25.283Z,101577.61
2018-05-25T21:09:52.128Z,101581.26
2018-05-25T21:12:18.892Z,101579.55
2018-05-25T21:14:45.681Z,101579.02
2018-05-25T21:17:12.388Z,101589.10
2018-05-25T21:19:39.785Z,101588.95
2018-05-25T21:22:06.557Z,101590.75
2018-05-25T21:24:33.210Z,101589.64
2018-05-25T21:26:59.899Z,101593.19
2018-05-25T21:29:26.603Z,101595.66
2018-05-25T21:31:55.408Z,101597.13
2018-05-25T21:34:22.929Z,101591.08
2018-05-25T21:36:49.808Z,101594.06
2018-05-25T21:39:16.453Z,101589.33
2018-05-25T21:41:44.050Z,101599.79
2018-05-25T21:44:10.829Z,101602.81
2018-05-25T21:46:37.568Z,101598.16
2018-05-25T21:49:04.271Z,101595.80
2018-05-25T21:51:30.985Z,101596.46
2018-05-25T21:53:58.485Z,101602.83
2018-05-25T21:56:25.250Z,101608.36
2018-05-25T21:58:51.982Z,101612.95
2018-05-25T22:01:18.665Z,101611.73
2018-05-25T22:03:46.370Z,101616.33
2018-05-25T22:06:13.220Z,101606.98
2018-05-25T22:08:40.823Z,101613.27
2018-05-25T22:11:08.322Z,101623.66
2018-05-25T22:13:35.039Z,101614.25
2018-05-25T22:16:01.824Z,101613.70
2018-05-25T22:18:28.527Z,101617.98
2018-05-25T22:20:55.429Z,101618.66
2018-05-25T22:23:22.178Z,101620.18
2018-05-25T22:25:48.916Z,101620.46
2018-05-25T22:28:15.667Z,101625.45
2018-05-25T22:30:42.390Z,101625.90
2018-05-25T22:33:09.202Z,101625.67
2018-05-25T22:35:35.888Z,101630.02
2018-05-25T22:38:02.633Z,101627.81
2018-05-25T22:40:30.077Z,101634.23
2018-05-25T22:43:14.942Z,101632.08
2018-05-25T22:45:59.845Z,101634.89
2018-05-25T22:48:45.677Z,101643.55
2018-05-25T22:51:30.711Z,101647.90
2018-05-25T22:54:02.819Z,101645.80
2018-05-25T22:56:29.596Z,101645.86
2018-05-25T22:58:57.173Z,101640.07
2018-05-25T23:01:23.881Z,101643.15
2018-05-25T23:03:50.841Z,101647.02
2018-05-25T23:06:18.253Z,101651.62
2018-05-25T23:08:45.039Z,101648.29
2018-05-25T23:11:11.780Z,101650.54
2018-05-25T23:13:39.460Z,101649.08
2018-05-25T23:16:06.168Z,101648.58
2018-05-25T23:18:32.925Z,101652.83
2018-05-25T23:20:59.573Z,101650.60
2018-05-25T23:23:26.482Z,101646.01
2018-05-25T23:25:53.209Z,101654.48
2018-05-25T23:28:19.941Z,101648.30
2018-05-25T23:30:47.986Z,101642.28
2018-05-25T23:33:14.700Z,101643.27
2018-05-25T23:35:42.113Z,101639.06
2018-05-25T23:38:08.799Z,101645.91
2018-05-25T23:40:36.517Z,101631.08
2018-05-25T23:43:03.353Z,101632.73
2018-05-25T23:45:30.122Z,101634.28
2018-05-25T23:47:56.853Z,101631.84
2018-05-25T23:50:23.625Z,101635.48
2018-05-25T23:52:51.147Z,101634.91
2018-05-25T23:55:17.804Z,101637.86
2018-05-25T23:57:44.452Z,101636.73
